sensor_id;sensor_type;location;lat;lon;timestamp;temperature;humidity
1592;DHT22;789;51.612;7.510;2023-05-17T00:00:20;11.90;1.00
1592;DHT22;789;51.612;7.510;2023-05-17T00:02:46;11.90;1.00
1592;DHT22;789;51.612;7.510;2023-05-17T00:05:13;11.90;1.00
1592;DHT22;789;51.612;7.510;2023-05-17T00:07:40;11.90;1.00
1592;DHT22;789;51.612;7.510;2023-05-17T00:10:08;11.90;1.00
1592;DHT22;789;51.612;7.510;2023-05-17T00:12:35;11.80;1.00
1592;DHT22;789;51.612;7.510;2023-05-17T00:15:02;11.80;1.00
1592;DHT22;789;51.612;7.510;2023-05-17T00:17:29;11.80;1.00
1592;DHT22;789;51.612;7.510;2023-05-17T00:19:56;11.80;1.00
1592;DHT22;789;51.612;7.510;2023-05-17T00:22:23;11.70;1.00
1592;DHT22;789;51.612;7.510;2023-05-17T00:24:50;11.70;1.00
1592;DHT22;789;51.612;7.510;2023-05-17T00:27:18;11.70;1.00
1592;DHT22;789;51.612;7.510;2023-05-17T00:29:45;11.60;1.00
1592;DHT22;789;51.612;7.510;2023-05-17T00:32:12;11.60;1.00
1592;DHT22;789;51.612;7.510;2023-05-17T00:34:39;11.60;1.00
1592;DHT22;789;51.612;7.510;2023-05-17T00:37:05;11.50;1.00
1592;DHT22;789;51.612;7.510;2023-05-17T00:39:32;11.50;1.00
1592;DHT22;789;51.612;7.510;2023-05-17T00:41:59;11.50;1.00
1592;DHT22;789;51.612;7.510;2023-05-17T00:44:27;11.40;1.00
1592;DHT22;789;51.612;7.510;2023-05-17T00:46:54;11.40;1.00
1592;DHT22;789;51.612;7.510;2023-05-17T00:49:24;11.40;1.00
1592;DHT22;789;51.612;7.510;2023-05-17T00:51:52;11.40;1.00
1592;DHT22;789;51.612;7.510;2023-05-17T00:54:19;11.40;1.00
1592;DHT22;789;51.612;7.510;2023-05-17T00:56:46;11.30;1.00
1592;DHT22;789;51.612;7.510;2023-05-17T00:59:13;11.30;1.00
1592;DHT22;789;51.612;7.510;2023-05-17T01:01:42;11.30;1.00
1592;DHT22;789;51.612;7.510;2023-05-17T01:04:09;11.30;1.00
1592;DHT22;789;51.612;7.510;2023-05-17T01:06:36;11.30;1.00
1592;DHT22;789;51.612;7.510;2023-05-17T01:09:03;11.30;1.00
1592;DHT22;789;51.612;7.510;2023-05-17T01:11:38;11.30;1.00
1592;DHT22;789;51.612;7.510;2023-05-17T01:14:17;11.20;1.00
1592;DHT22;789;51.612;7.510;2023-05-17T01:16:55;11.20;1.00
1592;DHT22;789;51.612;7.510;2023-05-17T01:19:39;11.20;1.00
1592;DHT22;789;51.612;7.510;2023-05-17T01:22:16;11.20;1.00
1592;DHT22;789;51.612;7.510;2023-05-17T01:24:51;11.10;1.00
1592;DHT22;789;51.612;7.510;2023-05-17T01:27:21;11.10;1.00
1592;DHT22;789;51.612;7.510;2023-05-17T01:29:49;11.10;1.00
1592;DHT22;789;51.612;7.510;2023-05-17T01:32:17;11.10;1.00
1592;DHT22;789;51.612;7.510;2023-05-17T01:34:45;11.10;1.00
1592;DHT22;789;51.612;7.510;2023-05-17T01:37:11;11.10;1.00
1592;DHT22;789;51.612;7.510;2023-05-17T01:39:39;11.10;1.00
1592;DHT22;789;51.612;7.510;2023-05-17T01:42:10;11.10;1.00
1592;DHT22;789;51.612;7.510;2023-05-17T01:44:44;11.10;1.00
1592;DHT22;789;51.612;7.510;2023-05-17T01:47:17;11.10;1.00
1592;DHT22;789;51.612;7.510;2023-05-17T01:49:48;11.00;1.00
1592;DHT22;789;51.612;7.510;2023-05-17T01:52:23;11.10;1.00
1592;DHT22;789;51.612;7.510;2023-05-17T01:54:55;11.00;1.00
1592;DHT22;789;51.612;7.510;2023-05-17T01:57:28;11.00;1.00
1592;DHT22;789;51.612;7.510;2023-05-17T02:00:02;11.00;1.00
1592;DHT22;789;51.612;7.510;2023-05-17T02:02:30;11.10;1.00
1592;DHT22;789;51.612;7.510;2023-05-17T02:04:57;11.00;1.00
1592;DHT22;789;51.612;7.510;2023-05-17T02:07:23;10.90;1.00
1592;DHT22;789;51.612;7.510;2023-05-17T02:09:50;10.90;1.00
1592;DHT22;789;51.612;7.510;2023-05-17T02:12:17;10.90;1.00
1592;DHT22;789;51.612;7.510;2023-05-17T02:14:44;10.90;1.00
1592;DHT22;789;51.612;7.510;2023-05-17T02:17:12;10.90;1.00
1592;DHT22;789;51.612;7.510;2023-05-17T02:19:39;10.90;1.00
1592;DHT22;789;51.612;7.510;2023-05-17T02:22:05;10.90;1.00
1592;DHT22;789;51.612;7.510;2023-05-17T02:24:32;10.90;1.00
1592;DHT22;789;51.612;7.510;2023-05-17T02:26:59;10.80;1.00
1592;DHT22;789;51.612;7.510;2023-05-17T02:29:26;10.80;1.00
1592;DHT22;789;51.612;7.510;2023-05-17T02:31:53;10.80;1.00
1592;DHT22;789;51.612;7.510;2023-05-17T02:34:21;10.80;1.00
1592;DHT22;789;51.612;7.510;2023-05-17T02:36:48;10.70;1.00
1592;DHT22;789;51.612;7.510;2023-05-17T02:39:15;10.80;1.00
1592;DHT22;789;51.612;7.510;2023-05-17T02:41:42;10.80;1.00
1592;DHT22;789;51.612;7.510;2023-05-17T02:44:08;10.70;1.00
1592;DHT22;789;51.612;7.510;2023-05-17T02:46:35;10.70;1.00
1592;DHT22;789;51.612;7.510;2023-05-17T02:49:02;10.70;1.00
1592;DHT22;789;51.612;7.510;2023-05-17T02:51:30;10.80;1.00
1592;DHT22;789;51.612;7.510;2023-05-17T02:53:57;10.70;1.00
1592;DHT22;789;51.612;7.510;2023-05-17T02:56:25;10.70;1.00
1592;DHT22;789;51.612;7.510;2023-05-17T02:58:52;10.70;1.00
1592;DHT22;789;51.612;7.510;2023-05-17T03:01:19;10.70;1.00
1592;DHT22;789;51.612;7.510;2023-05-17T03:03:46;10.70;1.00
1592;DHT22;789;51.612;7.510;2023-05-17T03:06:13;10.70;1.00
1592;DHT22;789;51.612;7.510;2023-05-17T03:08:41;10.70;1.00
1592;DHT22;789;51.612;7.510;2023-05-17T03:11:08;10.80;1.00
1592;DHT22;789;51.612;7.510;2023-05-17T03:13:35;10.80;1.00
1592;DHT22;789;51.612;7.510;2023-05-17T03:16:01;10.70;1.00
1592;DHT22;789;51.612;7.510;2023-05-17T03:18:28;10.70;1.00
1592;DHT22;789;51.612;7.510;2023-05-17T03:20:55;10.70;1.00
1592;DHT22;789;51.612;7.510;2023-05-17T03:23:22;10.70;1.00
1592;DHT22;789;51.612;7.510;2023-05-17T03:25:50;10.70;1.00
1592;DHT22;789;51.612;7.510;2023-05-17T03:28:17;10.70;1.00
1592;DHT22;789;51.612;7.510;2023-05-17T03:30:44;10.70;1.00
1592;DHT22;789;51.612;7.510;2023-05-17T03:33:10;10.70;1.00
1592;DHT22;789;51.612;7.510;2023-05-17T03:35:37;10.70;1.00
1592;DHT22;789;51.612;7.510;2023-05-17T03:38:04;10.70;1.00
1592;DHT22;789;51.612;7.510;2023-05-17T03:40:31;10.70;1.00
1592;DHT22;789;51.612;7.510;2023-05-17T03:42:59;10.60;1.00
1592;DHT22;789;51.612;7.510;2023-05-17T03:45:26;10.70;1.00
1592;DHT22;789;51.612;7.510;2023-05-17T03:47:53;10.70;1.00
1592;DHT22;789;51.612;7.510;2023-05-17T03:50:19;10.80;1.00
1592;DHT22;789;51.612;7.510;2023-05-17T03:52:47;10.70;1.00
1592;DHT22;789;51.612;7.510;2023-05-17T03:55:13;10.80;1.00
1592;DHT22;789;51.612;7.510;2023-05-17T03:57:40;10.80;1.00
1592;DHT22;789;51.612;7.510;2023-05-17T04:00:11;10.80;1.00
1592;DHT22;789;51.612;7.510;2023-05-17T04:02:37;10.80;1.00
1592;DHT22;789;51.612;7.510;2023-05-17T04:05:05;10.90;1.00
1592;DHT22;789;51.612;7.510;2023-05-17T04:07:31;11.00;1.00
1592;DHT22;789;51.612;7.510;2023-05-17T04:09:58;11.00;1.00
1592;DHT22;789;51.612;7.510;2023-05-17T04:12:27;11.00;1.00
1592;DHT22;789;51.612;7.510;2023-05-17T04:14:54;11.00;1.00
1592;DHT22;789;51.612;7.510;2023-05-17T04:17:22;11.00;1.00
1592;DHT22;789;51.612;7.510;2023-05-17T04:19:49;11.00;1.00
1592;DHT22;789;51.612;7.510;2023-05-17T04:22:15;10.90;1.00
1592;DHT22;789;51.612;7.510;2023-05-17T04:24:42;11.00;1.00
1592;DHT22;789;51.612;7.510;2023-05-17T04:27:09;11.00;1.00
1592;DHT22;789;51.612;7.510;2023-05-17T04:29:36;11.10;1.00
1592;DHT22;789;51.612;7.510;2023-05-17T04:32:03;11.00;1.00
1592;DHT22;789;51.612;7.510;2023-05-17T04:34:32;11.00;1.00
1592;DHT22;789;51.612;7.510;2023-05-17T04:36:59;11.10;1.00
1592;DHT22;789;51.612;7.510;2023-05-17T04:39:26;11.10;1.00
1592;DHT22;789;51.612;7.510;2023-05-17T04:41:52;11.10;1.00
1592;DHT22;789;51.612;7.510;2023-05-17T04:44:19;11.10;1.00
1592;DHT22;789;51.612;7.510;2023-05-17T04:46:48;11.20;1.00
1592;DHT22;789;51.612;7.510;2023-05-17T04:49:14;11.20;1.00
1592;DHT22;789;51.612;7.510;2023-05-17T04:51:44;11.30;1.00
1592;DHT22;789;51.612;7.510;2023-05-17T04:54:11;11.40;1.00
1592;DHT22;789;51.612;7.510;2023-05-17T04:56:38;11.40;1.00
1592;DHT22;789;51.612;7.510;2023-05-17T04:59:05;11.50;1.00
1592;DHT22;789;51.612;7.510;2023-05-17T05:01:31;11.60;1.00
1592;DHT22;789;51.612;7.510;2023-05-17T05:03:59;11.50;1.00
1592;DHT22;789;51.612;7.510;2023-05-17T05:06:31;11.60;1.00
1592;DHT22;789;51.612;7.510;2023-05-17T05:08:59;11.60;1.00
1592;DHT22;789;51.612;7.510;2023-05-17T05:11:26;11.60;1.00
1592;DHT22;789;51.612;7.510;2023-05-17T05:13:53;11.50;1.00
1592;DHT22;789;51.612;7.510;2023-05-17T05:16:22;11.50;1.00
1592;DHT22;789;51.612;7.510;2023-05-17T05:18:49;11.60;1.00
1592;DHT22;789;51.612;7.510;2023-05-17T05:21:16;11.60;1.00
1592;DHT22;789;51.612;7.510;2023-05-17T05:23:43;11.70;1.00
1592;DHT22;789;51.612;7.510;2023-05-17T05:26:11;11.80;1.00
1592;DHT22;789;51.612;7.510;2023-05-17T05:28:37;11.90;1.00
1592;DHT22;789;51.612;7.510;2023-05-17T05:31:04;12.10;1.00
1592;DHT22;789;51.612;7.510;2023-05-17T05:33:31;12.20;1.00
1592;DHT22;789;51.612;7.510;2023-05-17T05:35:58;12.30;1.00
1592;DHT22;789;51.612;7.510;2023-05-17T05:38:25;12.50;1.00
1592;DHT22;789;51.612;7.510;2023-05-17T05:40:51;12.70;1.00
1592;DHT22;789;51.612;7.510;2023-05-17T05:43:19;12.90;1.00
1592;DHT22;789;51.612;7.510;2023-05-17T05:45:46;13.10;1.00
1592;DHT22;789;51.612;7.510;2023-05-17T05:48:13;13.20;1.00
1592;DHT22;789;51.612;7.510;2023-05-17T05:50:42;13.30;1.00
1592;DHT22;789;51.612;7.510;2023-05-17T05:53:09;13.50;1.00
1592;DHT22;789;51.612;7.510;2023-05-17T05:55:40;13.60;1.00
1592;DHT22;789;51.612;7.510;2023-05-17T05:58:07;13.70;1.00
1592;DHT22;789;51.612;7.510;2023-05-17T06:00:36;13.70;1.00
1592;DHT22;789;51.612;7.510;2023-05-17T06:03:03;13.60;1.00
1592;DHT22;789;51.612;7.510;2023-05-17T06:05:30;13.50;1.00
1592;DHT22;789;51.612;7.510;2023-05-17T06:07:57;13.60;1.00
1592;DHT22;789;51.612;7.510;2023-05-17T06:10:24;13.80;1.00
1592;DHT22;789;51.612;7.510;2023-05-17T06:12:50;14.00;1.00
1592;DHT22;789;51.612;7.510;2023-05-17T06:15:17;14.20;1.00
1592;DHT22;789;51.612;7.510;2023-05-17T06:17:45;14.30;1.00
1592;DHT22;789;51.612;7.510;2023-05-17T06:20:15;14.40;1.00
1592;DHT22;789;51.612;7.510;2023-05-17T06:22:42;14.50;1.00
1592;DHT22;789;51.612;7.510;2023-05-17T06:25:09;14.60;1.00
1592;DHT22;789;51.612;7.510;2023-05-17T06:27:36;14.70;1.00
1592;DHT22;789;51.612;7.510;2023-05-17T06:30:04;14.90;1.00
1592;DHT22;789;51.612;7.510;2023-05-17T06:32:31;14.90;1.00
1592;DHT22;789;51.612;7.510;2023-05-17T06:34:59;15.00;1.00
1592;DHT22;789;51.612;7.510;2023-05-17T06:37:26;15.10;1.00
1592;DHT22;789;51.612;7.510;2023-05-17T06:40:00;15.20;1.00
1592;DHT22;789;51.612;7.510;2023-05-17T06:42:29;15.20;1.00
1592;DHT22;789;51.612;7.510;2023-05-17T06:44:56;15.30;1.00
1592;DHT22;789;51.612;7.510;2023-05-17T06:47:23;15.50;1.00
1592;DHT22;789;51.612;7.510;2023-05-17T06:49:50;15.60;1.00
1592;DHT22;789;51.612;7.510;2023-05-17T06:52:21;15.80;1.00
1592;DHT22;789;51.612;7.510;2023-05-17T06:54:47;16.00;1.00
1592;DHT22;789;51.612;7.510;2023-05-17T06:57:14;16.20;1.00
1592;DHT22;789;51.612;7.510;2023-05-17T06:59:41;16.30;1.00
1592;DHT22;789;51.612;7.510;2023-05-17T07:02:08;16.50;1.00
1592;DHT22;789;51.612;7.510;2023-05-17T07:04:35;16.50;1.00
1592;DHT22;789;51.612;7.510;2023-05-17T07:07:02;16.70;1.00
1592;DHT22;789;51.612;7.510;2023-05-17T07:09:30;16.80;1.00
1592;DHT22;789;51.612;7.510;2023-05-17T07:11:56;16.90;1.00
1592;DHT22;789;51.612;7.510;2023-05-17T07:14:23;17.00;1.00
1592;DHT22;789;51.612;7.510;2023-05-17T07:16:50;17.10;1.00
1592;DHT22;789;51.612;7.510;2023-05-17T07:19:17;17.30;1.00
1592;DHT22;789;51.612;7.510;2023-05-17T07:21:45;17.60;1.00
1592;DHT22;789;51.612;7.510;2023-05-17T07:24:14;17.80;1.00
1592;DHT22;789;51.612;7.510;2023-05-17T07:26:42;17.90;1.00
1592;DHT22;789;51.612;7.510;2023-05-17T07:29:12;17.80;1.00
1592;DHT22;789;51.612;7.510;2023-05-17T07:31:39;17.60;1.00
1592;DHT22;789;51.612;7.510;2023-05-17T07:34:06;17.40;1.00
1592;DHT22;789;51.612;7.510;2023-05-17T07:36:33;17.20;1.00
1592;DHT22;789;51.612;7.510;2023-05-17T07:39:00;16.90;1.00
1592;DHT22;789;51.612;7.510;2023-05-17T07:41:27;16.50;1.00
1592;DHT22;789;51.612;7.510;2023-05-17T07:43:55;16.40;1.00
1592;DHT22;789;51.612;7.510;2023-05-17T07:46:22;16.20;1.00
1592;DHT22;789;51.612;7.510;2023-05-17T07:48:49;16.10;1.00
1592;DHT22;789;51.612;7.510;2023-05-17T07:51:15;16.10;1.00
1592;DHT22;789;51.612;7.510;2023-05-17T07:53:42;15.90;1.00
1592;DHT22;789;51.612;7.510;2023-05-17T07:56:09;16.00;1.00
1592;DHT22;789;51.612;7.510;2023-05-17T07:58:36;16.80;1.00
1592;DHT22;789;51.612;7.510;2023-05-17T08:01:04;17.50;1.00
1592;DHT22;789;51.612;7.510;2023-05-17T08:03:31;17.70;1.00
1592;DHT22;789;51.612;7.510;2023-05-17T08:05:58;18.00;1.00
1592;DHT22;789;51.612;7.510;2023-05-17T08:08:25;18.70;1.00
1592;DHT22;789;51.612;7.510;2023-05-17T08:10:52;18.90;1.00
1592;DHT22;789;51.612;7.510;2023-05-17T08:13:19;18.90;1.00
1592;DHT22;789;51.612;7.510;2023-05-17T08:15:45;19.00;1.00
1592;DHT22;789;51.612;7.510;2023-05-17T08:18:14;19.70;1.00
1592;DHT22;789;51.612;7.510;2023-05-17T08:20:40;20.00;1.00
1592;DHT22;789;51.612;7.510;2023-05-17T08:23:07;19.90;1.00
1592;DHT22;789;51.612;7.510;2023-05-17T08:25:34;19.60;1.00
1592;DHT22;789;51.612;7.510;2023-05-17T08:28:01;19.30;1.00
1592;DHT22;789;51.612;7.510;2023-05-17T08:30:28;19.30;1.00
1592;DHT22;789;51.612;7.510;2023-05-17T08:32:55;19.30;1.00
1592;DHT22;789;51.612;7.510;2023-05-17T08:35:23;19.00;1.00
1592;DHT22;789;51.612;7.510;2023-05-17T08:37:51;18.60;1.00
1592;DHT22;789;51.612;7.510;2023-05-17T08:40:20;18.20;1.00
1592;DHT22;789;51.612;7.510;2023-05-17T08:42:47;17.90;1.00
1592;DHT22;789;51.612;7.510;2023-05-17T08:45:14;17.60;1.00
1592;DHT22;789;51.612;7.510;2023-05-17T08:47:42;17.50;1.00
1592;DHT22;789;51.612;7.510;2023-05-17T08:50:10;17.50;1.00
1592;DHT22;789;51.612;7.510;2023-05-17T08:52:40;17.70;1.00
1592;DHT22;789;51.612;7.510;2023-05-17T08:55:08;18.00;1.00
1592;DHT22;789;51.612;7.510;2023-05-17T08:57:35;18.10;1.00
1592;DHT22;789;51.612;7.510;2023-05-17T09:00:05;18.10;1.00
1592;DHT22;789;51.612;7.510;2023-05-17T09:02:37;18.70;1.00
1592;DHT22;789;51.612;7.510;2023-05-17T09:05:05;19.90;1.00
1592;DHT22;789;51.612;7.510;2023-05-17T09:07:32;20.90;1.00
1592;DHT22;789;51.612;7.510;2023-05-17T09:10:01;20.90;1.00
1592;DHT22;789;51.612;7.510;2023-05-17T09:12:30;20.50;1.00
1592;DHT22;789;51.612;7.510;2023-05-17T09:15:12;20.10;1.00
1592;DHT22;789;51.612;7.510;2023-05-17T09:17:40;20.00;1.00
1592;DHT22;789;51.612;7.510;2023-05-17T09:20:07;20.90;1.00
1592;DHT22;789;51.612;7.510;2023-05-17T09:22:34;21.70;1.00
1592;DHT22;789;51.612;7.510;2023-05-17T09:25:03;21.90;1.00
1592;DHT22;789;51.612;7.510;2023-05-17T09:27:30;22.50;1.00
1592;DHT22;789;51.612;7.510;2023-05-17T09:29:57;23.00;1.00
1592;DHT22;789;51.612;7.510;2023-05-17T09:32:24;23.40;1.00
1592;DHT22;789;51.612;7.510;2023-05-17T09:34:58;23.70;1.00
1592;DHT22;789;51.612;7.510;2023-05-17T09:37:27;24.00;1.00
1592;DHT22;789;51.612;7.510;2023-05-17T09:39:54;24.10;1.00
1592;DHT22;789;51.612;7.510;2023-05-17T09:42:25;24.50;1.00
1592;DHT22;789;51.612;7.510;2023-05-17T09:44:54;24.90;1.00
1592;DHT22;789;51.612;7.510;2023-05-17T09:47:23;24.80;1.00
1592;DHT22;789;51.612;7.510;2023-05-17T09:49:50;24.60;1.00
1592;DHT22;789;51.612;7.510;2023-05-17T09:52:17;25.20;1.00
1592;DHT22;789;51.612;7.510;2023-05-17T09:54:50;26.30;1.00
1592;DHT22;789;51.612;7.510;2023-05-17T09:57:18;27.50;1.00
1592;DHT22;789;51.612;7.510;2023-05-17T09:59:46;28.00;1.00
1592;DHT22;789;51.612;7.510;2023-05-17T10:02:21;28.80;1.00
1592;DHT22;789;51.612;7.510;2023-05-17T10:04:49;29.80;1.00
1592;DHT22;789;51.612;7.510;2023-05-17T10:07:20;29.70;1.00
1592;DHT22;789;51.612;7.510;2023-05-17T10:09:47;29.00;1.00
1592;DHT22;789;51.612;7.510;2023-05-17T10:12:16;27.50;1.00
1592;DHT22;789;51.612;7.510;2023-05-17T10:14:44;26.10;1.00
1592;DHT22;789;51.612;7.510;2023-05-17T10:17:13;25.40;1.00
1592;DHT22;789;51.612;7.510;2023-05-17T10:19:41;25.00;1.00
1592;DHT22;789;51.612;7.510;2023-05-17T10:22:09;25.60;1.00
1592;DHT22;789;51.612;7.510;2023-05-17T10:24:38;27.30;1.00
1592;DHT22;789;51.612;7.510;2023-05-17T10:27:05;27.90;1.00
1592;DHT22;789;51.612;7.510;2023-05-17T10:29:33;27.80;1.00
1592;DHT22;789;51.612;7.510;2023-05-17T10:32:02;27.30;1.00
1592;DHT22;789;51.612;7.510;2023-05-17T10:34:33;26.80;1.00
1592;DHT22;789;51.612;7.510;2023-05-17T10:37:00;26.70;1.00
1592;DHT22;789;51.612;7.510;2023-05-17T10:39:27;27.50;1.00
1592;DHT22;789;51.612;7.510;2023-05-17T10:41:55;27.60;1.00
1592;DHT22;789;51.612;7.510;2023-05-17T10:44:24;27.40;1.00
1592;DHT22;789;51.612;7.510;2023-05-17T10:46:53;26.60;1.00
1592;DHT22;789;51.612;7.510;2023-05-17T10:49:23;26.40;1.00
1592;DHT22;789;51.612;7.510;2023-05-17T10:51:52;27.50;1.00
1592;DHT22;789;51.612;7.510;2023-05-17T10:54:20;28.50;1.00
1592;DHT22;789;51.612;7.510;2023-05-17T10:56:48;28.30;1.00
1592;DHT22;789;51.612;7.510;2023-05-17T10:59:22;27.50;1.00
1592;DHT22;789;51.612;7.510;2023-05-17T11:01:50;26.50;1.00
1592;DHT22;789;51.612;7.510;2023-05-17T11:04:23;25.70;1.00
1592;DHT22;789;51.612;7.510;2023-05-17T11:06:53;24.70;1.00
1592;DHT22;789;51.612;7.510;2023-05-17T11:09:22;23.90;1.00
1592;DHT22;789;51.612;7.510;2023-05-17T11:12:06;23.40;1.00
1592;DHT22;789;51.612;7.510;2023-05-17T11:14:46;24.20;1.00
1592;DHT22;789;51.612;7.510;2023-05-17T11:17:13;24.70;1.00
1592;DHT22;789;51.612;7.510;2023-05-17T11:19:48;24.40;1.00
1592;DHT22;789;51.612;7.510;2023-05-17T11:22:17;23.70;1.00
1592;DHT22;789;51.612;7.510;2023-05-17T11:24:44;22.90;1.00
1592;DHT22;789;51.612;7.510;2023-05-17T11:27:13;23.10;1.00
1592;DHT22;789;51.612;7.510;2023-05-17T11:29:46;24.10;1.00
1592;DHT22;789;51.612;7.510;2023-05-17T11:32:13;25.30;1.00
1592;DHT22;789;51.612;7.510;2023-05-17T11:34:40;26.70;1.00
1592;DHT22;789;51.612;7.510;2023-05-17T11:37:10;28.20;1.00
1592;DHT22;789;51.612;7.510;2023-05-17T11:40:00;28.60;1.00
1592;DHT22;789;51.612;7.510;2023-05-17T11:42:28;28.60;1.00
1592;DHT22;789;51.612;7.510;2023-05-17T11:44:56;28.00;1.00
1592;DHT22;789;51.612;7.510;2023-05-17T11:47:24;26.80;1.00
1592;DHT22;789;51.612;7.510;2023-05-17T11:49:53;25.40;1.00
1592;DHT22;789;51.612;7.510;2023-05-17T11:52:21;24.10;1.00
1592;DHT22;789;51.612;7.510;2023-05-17T11:54:50;22.90;1.00
1592;DHT22;789;51.612;7.510;2023-05-17T11:57:17;22.00;1.00
1592;DHT22;789;51.612;7.510;2023-05-17T11:59:46;21.20;1.00
1592;DHT22;789;51.612;7.510;2023-05-17T12:02:25;20.80;1.00
1592;DHT22;789;51.612;7.510;2023-05-17T12:04:57;20.20;1.00
1592;DHT22;789;51.612;7.510;2023-05-17T12:07:24;19.70;1.00
1592;DHT22;789;51.612;7.510;2023-05-17T12:09:55;19.30;1.00
1592;DHT22;789;51.612;7.510;2023-05-17T12:12:22;19.00;1.00
1592;DHT22;789;51.612;7.510;2023-05-17T12:14:49;18.90;1.00
1592;DHT22;789;51.612;7.510;2023-05-17T12:17:22;18.80;1.00
1592;DHT22;789;51.612;7.510;2023-05-17T12:19:51;18.80;1.00
1592;DHT22;789;51.612;7.510;2023-05-17T12:22:19;18.80;1.00
1592;DHT22;789;51.612;7.510;2023-05-17T12:24:46;18.90;1.00
1592;DHT22;789;51.612;7.510;2023-05-17T12:27:23;19.00;1.00
1592;DHT22;789;51.612;7.510;2023-05-17T12:29:51;19.30;1.00
1592;DHT22;789;51.612;7.510;2023-05-17T12:32:18;19.60;1.00
1592;DHT22;789;51.612;7.510;2023-05-17T12:34:46;19.70;1.00
1592;DHT22;789;51.612;7.510;2023-05-17T12:37:14;19.50;1.00
1592;DHT22;789;51.612;7.510;2023-05-17T12:39:41;19.30;1.00
1592;DHT22;789;51.612;7.510;2023-05-17T12:42:08;19.40;1.00
1592;DHT22;789;51.612;7.510;2023-05-17T12:44:38;19.40;1.00
1592;DHT22;789;51.612;7.510;2023-05-17T12:47:08;19.40;1.00
1592;DHT22;789;51.612;7.510;2023-05-17T12:49:38;19.50;1.00
1592;DHT22;789;51.612;7.510;2023-05-17T12:52:06;19.60;1.00
1592;DHT22;789;51.612;7.510;2023-05-17T12:54:33;19.70;1.00
1592;DHT22;789;51.612;7.510;2023-05-17T12:57:09;19.90;1.00
1592;DHT22;789;51.612;7.510;2023-05-17T12:59:47;19.90;1.00
1592;DHT22;789;51.612;7.510;2023-05-17T13:02:14;20.00;1.00
1592;DHT22;789;51.612;7.510;2023-05-17T13:04:44;19.90;1.00
1592;DHT22;789;51.612;7.510;2023-05-17T13:07:20;19.80;1.00
1592;DHT22;789;51.612;7.510;2023-05-17T13:09:47;19.60;1.00
1592;DHT22;789;51.612;7.510;2023-05-17T13:12:21;19.50;1.00
1592;DHT22;789;51.612;7.510;2023-05-17T13:14:51;19.30;1.00
1592;DHT22;789;51.612;7.510;2023-05-17T13:17:33;19.20;1.00
1592;DHT22;789;51.612;7.510;2023-05-17T13:20:01;19.30;1.00
1592;DHT22;789;51.612;7.510;2023-05-17T13:22:28;19.10;1.00
1592;DHT22;789;51.612;7.510;2023-05-17T13:24:55;19.00;1.00
1592;DHT22;789;51.612;7.510;2023-05-17T13:27:23;18.70;1.00
1592;DHT22;789;51.612;7.510;2023-05-17T13:30:10;18.50;1.00
1592;DHT22;789;51.612;7.510;2023-05-17T13:32:37;18.30;1.00
1592;DHT22;789;51.612;7.510;2023-05-17T13:35:06;18.20;1.00
1592;DHT22;789;51.612;7.510;2023-05-17T13:37:36;18.10;1.00
1592;DHT22;789;51.612;7.510;2023-05-17T13:40:04;18.10;1.00
1592;DHT22;789;51.612;7.510;2023-05-17T13:42:35;18.20;1.00
1592;DHT22;789;51.612;7.510;2023-05-17T13:45:03;18.20;1.00
1592;DHT22;789;51.612;7.510;2023-05-17T13:47:31;18.40;1.00
1592;DHT22;789;51.612;7.510;2023-05-17T13:49:58;18.60;1.00
1592;DHT22;789;51.612;7.510;2023-05-17T13:52:26;18.60;1.00
1592;DHT22;789;51.612;7.510;2023-05-17T13:54:53;18.60;1.00
1592;DHT22;789;51.612;7.510;2023-05-17T13:57:31;18.50;1.00
1592;DHT22;789;51.612;7.510;2023-05-17T14:00:05;18.50;1.00
1592;DHT22;789;51.612;7.510;2023-05-17T14:02:36;18.30;1.00
1592;DHT22;789;51.612;7.510;2023-05-17T14:05:04;18.50;1.00
1592;DHT22;789;51.612;7.510;2023-05-17T14:07:33;18.40;1.00
1592;DHT22;789;51.612;7.510;2023-05-17T14:10:05;18.30;1.00
1592;DHT22;789;51.612;7.510;2023-05-17T14:12:33;18.30;1.00
1592;DHT22;789;51.612;7.510;2023-05-17T14:15:00;18.20;1.00
1592;DHT22;789;51.612;7.510;2023-05-17T14:17:27;18.20;1.00
1592;DHT22;789;51.612;7.510;2023-05-17T14:19:55;18.20;1.00
1592;DHT22;789;51.612;7.510;2023-05-17T14:22:22;18.30;1.00
1592;DHT22;789;51.612;7.510;2023-05-17T14:24:49;18.30;1.00
1592;DHT22;789;51.612;7.510;2023-05-17T14:27:19;18.40;1.00
1592;DHT22;789;51.612;7.510;2023-05-17T14:29:46;18.50;1.00
1592;DHT22;789;51.612;7.510;2023-05-17T14:32:13;18.60;1.00
1592;DHT22;789;51.612;7.510;2023-05-17T14:34:40;18.60;1.00
1592;DHT22;789;51.612;7.510;2023-05-17T14:37:08;18.80;1.00
1592;DHT22;789;51.612;7.510;2023-05-17T14:42:20;18.80;1.00
1592;DHT22;789;51.612;7.510;2023-05-17T14:44:47;18.70;1.00
1592;DHT22;789;51.612;7.510;2023-05-17T14:47:14;18.60;1.00
1592;DHT22;789;51.612;7.510;2023-05-17T14:49:41;18.50;1.00
1592;DHT22;789;51.612;7.510;2023-05-17T14:52:09;18.20;1.00
1592;DHT22;789;51.612;7.510;2023-05-17T14:54:36;18.00;1.00
1592;DHT22;789;51.612;7.510;2023-05-17T14:57:04;17.80;1.00
1592;DHT22;789;51.612;7.510;2023-05-17T14:59:31;17.80;1.00
1592;DHT22;789;51.612;7.510;2023-05-17T15:01:58;17.70;1.00
1592;DHT22;789;51.612;7.510;2023-05-17T15:04:25;17.70;1.00
1592;DHT22;789;51.612;7.510;2023-05-17T15:06:52;17.60;1.00
1592;DHT22;789;51.612;7.510;2023-05-17T15:09:20;17.40;1.00
1592;DHT22;789;51.612;7.510;2023-05-17T15:11:48;17.40;1.00
1592;DHT22;789;51.612;7.510;2023-05-17T15:14:16;17.30;1.00
1592;DHT22;789;51.612;7.510;2023-05-17T15:16:46;17.30;1.00
1592;DHT22;789;51.612;7.510;2023-05-17T15:19:14;17.40;1.00
1592;DHT22;789;51.612;7.510;2023-05-17T15:21:41;17.40;1.00
1592;DHT22;789;51.612;7.510;2023-05-17T15:24:08;17.60;1.00
1592;DHT22;789;51.612;7.510;2023-05-17T15:26:36;17.70;1.00
1592;DHT22;789;51.612;7.510;2023-05-17T15:29:03;17.80;1.00
1592;DHT22;789;51.612;7.510;2023-05-17T15:31:30;18.00;1.00
1592;DHT22;789;51.612;7.510;2023-05-17T15:33:57;18.00;1.00
1592;DHT22;789;51.612;7.510;2023-05-17T15:36:24;18.00;1.00
1592;DHT22;789;51.612;7.510;2023-05-17T15:38:51;17.90;1.00
1592;DHT22;789;51.612;7.510;2023-05-17T15:41:17;17.80;1.00
1592;DHT22;789;51.612;7.510;2023-05-17T15:43:47;17.70;1.00
1592;DHT22;789;51.612;7.510;2023-05-17T15:46:14;17.50;1.00
1592;DHT22;789;51.612;7.510;2023-05-17T15:48:42;17.30;1.00
1592;DHT22;789;51.612;7.510;2023-05-17T15:51:09;17.20;1.00
1592;DHT22;789;51.612;7.510;2023-05-17T15:53:36;17.10;1.00
1592;DHT22;789;51.612;7.510;2023-05-17T15:56:03;17.00;1.00
1592;DHT22;789;51.612;7.510;2023-05-17T15:58:30;17.10;1.00
1592;DHT22;789;51.612;7.510;2023-05-17T16:01:01;17.00;1.00
1592;DHT22;789;51.612;7.510;2023-05-17T16:03:31;17.20;1.00
1592;DHT22;789;51.612;7.510;2023-05-17T16:05:58;17.20;1.00
1592;DHT22;789;51.612;7.510;2023-05-17T16:08:25;17.20;1.00
1592;DHT22;789;51.612;7.510;2023-05-17T16:10:53;17.30;1.00
1592;DHT22;789;51.612;7.510;2023-05-17T16:13:19;17.20;1.00
1592;DHT22;789;51.612;7.510;2023-05-17T16:15:46;17.20;1.00
1592;DHT22;789;51.612;7.510;2023-05-17T16:18:15;17.20;1.00
1592;DHT22;789;51.612;7.510;2023-05-17T16:20:42;17.20;1.00
1592;DHT22;789;51.612;7.510;2023-05-17T16:23:12;17.30;1.00
1592;DHT22;789;51.612;7.510;2023-05-17T16:25:39;17.30;1.00
1592;DHT22;789;51.612;7.510;2023-05-17T16:28:06;17.30;1.00
1592;DHT22;789;51.612;7.510;2023-05-17T16:30:33;17.30;1.00
1592;DHT22;789;51.612;7.510;2023-05-17T16:33:00;17.20;1.00
1592;DHT22;789;51.612;7.510;2023-05-17T16:35:28;17.20;1.00
1592;DHT22;789;51.612;7.510;2023-05-17T16:37:58;17.30;1.00
1592;DHT22;789;51.612;7.510;2023-05-17T16:40:25;17.40;1.00
1592;DHT22;789;51.612;7.510;2023-05-17T16:42:53;17.40;1.00